Time;durP1;ratioP1;P1;durP2;ratioP2;P2;SDS_P1;SDS_P2;PMS_P1;PMS_P2;Temp;Humidity;BMP_temperature;BMP_pressure;BME280_temperature;BME280_humidity;BME280_pressure;Samples;Min_cycle;Max_cycle;Signal;HPM_P1;HPM_P2
2021/03/26 00:00:28;;;;;;;13.40;8.00;;;10.70;99.90;;;;;;5109529;28;20425;-82
2021/03/26 00:02:55;;;;;;;11.90;7.07;;;10.70;99.90;;;;;;5109877;28;20437;-82
2021/03/26 00:05:21;;;;;;;12.70;7.80;;;10.80;99.90;;;;;;5117076;28;20475;-80
2021/03/26 00:07:48;;;;;;;15.33;9.10;;;10.70;99.90;;;;;;5112617;28;20477;-84
2021/03/26 00:10:16;;;;;;;18.27;9.07;;;10.70;99.90;;;;;;5101931;28;20557;-83
2021/03/26 00:12:43;;;;;;;12.50;8.97;;;10.70;99.90;;;;;;5101458;28;20876;-81
2021/03/26 00:15:12;;;;;;;13.13;8.57;;;10.70;99.90;;;;;;5103103;28;20967;-83
2021/03/26 00:17:39;;;;;;;15.03;8.57;;;10.70;99.90;;;;;;5101332;28;20487;-83
2021/03/26 00:20:07;;;;;;;14.10;8.33;;;10.70;99.90;;;;;;5101955;28;20508;-84
2021/03/26 00:22:33;;;;;;;12.90;8.33;;;10.70;99.90;;;;;;5099868;28;20526;-82
2021/03/26 00:25:00;;;;;;;15.57;8.73;;;10.80;99.90;;;;;;5096296;28;20526;-82
2021/03/26 00:27:27;;;;;;;12.87;8.23;;;10.70;99.90;;;;;;5097273;28;20470;-84
2021/03/26 00:29:53;;;;;;;10.67;7.97;;;10.70;99.90;;;;;;5095989;28;20538;-83
2021/03/26 00:32:20;;;;;;;16.00;9.17;;;10.70;99.90;;;;;;5096444;28;20534;-83
2021/03/26 00:34:46;;;;;;;13.07;8.87;;;10.80;99.90;;;;;;5096281;28;20447;-82
2021/03/26 00:37:13;;;;;;;12.13;8.10;;;10.80;99.90;;;;;;5095772;28;20467;-82
2021/03/26 00:39:39;;;;;;;15.97;9.70;;;10.80;99.90;;;;;;5095621;28;20557;-82
2021/03/26 00:42:06;;;;;;;12.60;8.40;;;10.70;99.90;;;;;;5095495;28;20783;-82
2021/03/26 00:44:33;;;;;;;13.87;8.43;;;10.60;99.90;;;;;;5095701;28;20489;-83
2021/03/26 00:47:00;;;;;;;11.57;7.57;;;10.50;99.90;;;;;;5096490;28;21008;-82
2021/03/26 00:49:26;;;;;;;11.47;8.03;;;10.50;99.90;;;;;;5094816;28;20547;-82
2021/03/26 00:51:52;;;;;;;12.10;8.97;;;10.60;99.90;;;;;;5095260;28;20534;-83
2021/03/26 00:54:19;;;;;;;10.90;7.63;;;10.50;99.90;;;;;;5094920;28;20478;-81
2021/03/26 00:56:46;;;;;;;15.43;9.00;;;10.60;99.90;;;;;;5094636;28;20489;-82
2021/03/26 00:59:12;;;;;;;11.50;8.57;;;10.50;99.90;;;;;;5098742;28;20473;-83
2021/03/26 01:01:40;;;;;;;12.87;9.07;;;10.40;99.90;;;;;;5097183;28;20556;-83
2021/03/26 01:04:06;;;;;;;14.17;8.30;;;10.40;99.90;;;;;;5099484;28;20840;-83
2021/03/26 01:06:33;;;;;;;9.87;8.13;;;10.30;99.90;;;;;;5100092;28;20422;-82
2021/03/26 01:09:00;;;;;;;12.17;8.60;;;10.30;99.90;;;;;;5097735;28;20443;-84
2021/03/26 01:11:29;;;;;;;13.40;8.37;;;10.30;99.90;;;;;;5098318;28;20451;-83
2021/03/26 01:13:57;;;;;;;10.37;7.90;;;10.30;99.90;;;;;;5104234;28;20455;-85
2021/03/26 01:16:26;;;;;;;12.23;7.63;;;10.10;99.90;;;;;;5097070;28;20448;-84
2021/03/26 01:18:53;;;;;;;13.73;8.73;;;10.10;99.90;;;;;;5096230;28;20475;-84
2021/03/26 01:21:23;;;;;;;16.80;7.77;;;10.10;99.90;;;;;;5096929;28;20454;-84
2021/03/26 01:23:50;;;;;;;13.70;9.20;;;10.00;99.90;;;;;;5105647;28;20624;-81
2021/03/26 01:26:16;;;;;;;12.07;8.37;;;9.90;99.90;;;;;;5107183;28;20458;-84
2021/03/26 01:28:43;;;;;;;10.80;7.70;;;9.80;99.90;;;;;;5094331;28;20471;-84
2021/03/26 01:31:09;;;;;;;15.50;9.90;;;9.80;99.90;;;;;;5095492;28;20992;-80
2021/03/26 01:33:35;;;;;;;13.77;8.97;;;9.70;99.90;;;;;;5095606;28;20455;-82
2021/03/26 01:36:03;;;;;;;12.63;7.57;;;9.70;99.90;;;;;;5095157;28;20447;-82
2021/03/26 01:38:30;;;;;;;14.00;7.80;;;9.70;99.90;;;;;;5095210;28;20523;-81
2021/03/26 01:40:59;;;;;;;13.40;8.60;;;9.70;99.90;;;;;;5095165;28;20541;-84
2021/03/26 01:43:28;;;;;;;12.73;8.03;;;9.70;99.90;;;;;;5095634;28;20621;-84
2021/03/26 01:45:56;;;;;;;15.60;8.70;;;9.70;99.90;;;;;;5095677;28;20451;-84
2021/03/26 01:48:25;;;;;;;13.83;8.43;;;9.60;99.90;;;;;;5095610;28;20542;-85
2021/03/26 01:50:52;;;;;;;15.93;8.93;;;9.30;99.90;;;;;;5095849;28;20543;-84
2021/03/26 01:53:20;;;;;;;11.67;8.20;;;9.50;99.90;;;;;;5095348;28;20514;-83
2021/03/26 01:55:48;;;;;;;12.37;9.07;;;9.50;99.90;;;;;;5095016;28;20452;-83
2021/03/26 01:58:16;;;;;;;11.33;8.07;;;9.50;99.90;;;;;;5095101;28;20475;-83
2021/03/26 02:00:45;;;;;;;11.33;7.60;;;9.60;99.90;;;;;;5095497;28;20451;-83
2021/03/26 02:03:18;;;;;;;12.07;7.93;;;9.50;99.90;;;;;;5095605;28;20483;-84
2021/03/26 02:05:45;;;;;;;12.50;7.70;;;9.50;99.90;;;;;;5097225;28;20455;-84
2021/03/26 02:08:13;;;;;;;10.70;7.18;;;9.50;99.90;;;;;;5099591;28;20570;-84
2021/03/26 02:10:42;;;;;;;9.67;7.37;;;9.20;99.90;;;;;;5096417;28;20208;-83
2021/03/26 02:13:14;;;;;;;11.40;7.30;;;9.50;99.90;;;;;;5095837;28;20996;-83
2021/03/26 02:15:45;;;;;;;13.03;7.43;;;9.30;99.90;;;;;;5096016;28;20538;-84
2021/03/26 02:18:17;;;;;;;12.77;7.93;;;9.40;99.90;;;;;;5094642;28;20473;-83
2021/03/26 02:20:49;;;;;;;10.80;7.80;;;9.30;99.90;;;;;;5096331;28;20483;-84
2021/03/26 02:23:18;;;;;;;15.15;7.85;;;9.30;99.90;;;;;;5096047;28;20548;-84
2021/03/26 02:25:45;;;;;;;13.10;7.10;;;9.30;99.90;;;;;;5095599;28;20205;-84
2021/03/26 02:28:12;;;;;;;11.30;7.57;;;9.30;99.90;;;;;;5095847;28;20499;-84
2021/03/26 02:30:43;;;;;;;12.47;8.20;;;9.40;99.90;;;;;;5095534;28;20923;-85
2021/03/26 02:33:10;;;;;;;13.80;7.87;;;9.30;99.90;;;;;;5096078;28;20523;-84
2021/03/26 02:35:39;;;;;;;15.10;7.60;;;9.30;99.90;;;;;;5096460;28;20475;-84
2021/03/26 02:38:11;;;;;;;12.60;7.53;;;9.40;99.90;;;;;;5095697;28;20477;-84
2021/03/26 02:40:43;;;;;;;13.20;8.67;;;9.50;99.90;;;;;;5095963;28;20580;-84
2021/03/26 02:43:22;;;;;;;15.40;8.20;;;9.50;99.90;;;;;;5095740;28;20574;-84
2021/03/26 02:45:54;;;;;;;12.23;7.77;;;9.50;99.90;;;;;;5096007;28;20514;-84
2021/03/26 02:48:25;;;;;;;10.97;8.27;;;9.60;99.90;;;;;;5096357;28;20505;-84
2021/03/26 02:51:00;;;;;;;13.43;7.80;;;9.20;99.90;;;;;;5096557;28;20727;-84
2021/03/26 02:53:33;;;;;;;11.77;8.40;;;9.40;99.90;;;;;;5096513;28;20484;-84
2021/03/26 02:56:07;;;;;;;11.50;7.87;;;9.30;99.90;;;;;;5105473;28;20533;-84
2021/03/26 02:58:37;;;;;;;11.50;7.83;;;9.20;99.90;;;;;;5114290;28;20482;-83
2021/03/26 03:01:09;;;;;;;10.47;7.43;;;9.30;99.90;;;;;;5111800;28;20438;-83
2021/03/26 03:03:37;;;;;;;11.27;7.90;;;9.30;99.90;;;;;;5111349;28;20460;-83
2021/03/26 03:06:09;;;;;;;15.40;9.77;;;9.30;99.90;;;;;;5111026;28;20521;-83
2021/03/26 03:08:37;;;;;;;12.00;7.97;;;9.00;99.90;;;;;;5099292;28;20487;-84
2021/03/26 03:11:11;;;;;;;12.27;7.30;;;9.30;99.90;;;;;;5100828;28;20439;-83
2021/03/26 03:13:42;;;;;;;11.87;7.97;;;9.30;99.90;;;;;;5118541;28;20472;-84
2021/03/26 03:16:30;;;;;;;11.17;7.73;;;9.40;99.90;;;;;;5117967;28;20485;-83
2021/03/26 03:19:02;;;;;;;12.10;8.07;;;9.30;99.90;;;;;;5115844;27;20586;-83
2021/03/26 03:21:34;;;;;;;12.90;8.40;;;9.30;99.90;;;;;;5119264;27;20453;-83
2021/03/26 03:24:07;;;;;;;10.97;7.80;;;9.20;99.90;;;;;;5112844;28;20440;-83
2021/03/26 03:26:41;;;;;;;11.03;7.43;;;9.10;99.90;;;;;;5101422;28;20441;-84
2021/03/26 03:29:14;;;;;;;13.57;7.70;;;9.10;99.90;;;;;;5100752;28;20490;-84
2021/03/26 03:31:50;;;;;;;11.10;8.33;;;9.10;99.90;;;;;;5099882;28;20482;-85
2021/03/26 03:34:27;;;;;;;13.23;7.70;;;9.10;99.90;;;;;;5102973;28;20478;-83
2021/03/26 03:37:01;;;;;;;11.93;7.50;;;8.90;99.90;;;;;;5100024;28;20477;-81
2021/03/26 03:39:31;;;;;;;11.60;7.30;;;9.00;99.90;;;;;;5099585;28;20542;-84
2021/03/26 03:42:02;;;;;;;10.10;7.10;;;9.00;99.90;;;;;;5099309;28;20486;-84
2021/03/26 03:44:37;;;;;;;12.03;7.60;;;9.00;99.90;;;;;;5106879;28;20515;-83
2021/03/26 03:47:12;;;;;;;12.23;7.57;;;8.70;99.90;;;;;;5109336;28;21070;-83
2021/03/26 03:49:45;;;;;;;11.50;7.63;;;8.70;99.90;;;;;;5099342;28;20988;-84
2021/03/26 03:52:19;;;;;;;9.97;6.80;;;8.80;99.90;;;;;;5098731;28;20466;-84
2021/03/26 03:54:54;;;;;;;9.37;7.30;;;8.80;99.90;;;;;;5105903;28;20458;-84
2021/03/26 03:57:26;;;;;;;13.83;8.30;;;8.80;99.90;;;;;;5099303;28;20515;-84
2021/03/26 03:59:56;;;;;;;11.95;7.60;;;8.80;99.90;;;;;;5097398;28;20513;-83
2021/03/26 04:02:27;;;;;;;11.40;7.90;;;8.70;99.90;;;;;;5099020;28;20228;-85
2021/03/26 04:05:00;;;;;;;10.73;7.93;;;8.60;99.90;;;;;;5098932;28;20541;-84
2021/03/26 04:07:32;;;;;;;14.07;8.13;;;8.70;99.90;;;;;;5098862;28;20566;-83
2021/03/26 04:10:03;;;;;;;11.30;8.13;;;8.80;99.90;;;;;;5097987;28;20661;-82
2021/03/26 04:12:35;;;;;;;11.18;7.53;;;8.80;99.90;;;;;;5108359;22;20245;-76
2021/03/26 04:15:09;;;;;;;13.80;8.80;;;8.70;99.90;;;;;;5070074;28;20234;-76
2021/03/26 04:17:41;;;;;;;18.80;8.50;;;8.50;99.90;;;;;;5072916;28;20233;-76
2021/03/26 04:20:12;;;;;;;14.43;8.33;;;8.80;99.90;;;;;;5052648;28;20963;-76
2021/03/26 04:22:42;;;;;;;17.03;8.40;;;8.70;99.90;;;;;;5055445;28;20977;-76
2021/03/26 04:25:19;;;;;;;14.10;8.48;;;8.80;99.90;;;;;;5072122;28;20434;-76
2021/03/26 04:27:53;;;;;;;14.00;8.70;;;8.70;99.90;;;;;;5072559;28;20213;-77
2021/03/26 04:30:24;;;;;;;16.60;9.10;;;8.50;99.90;;;;;;5073509;28;20224;-77
2021/03/26 04:32:52;;;;;;;13.90;8.27;;;8.50;99.90;;;;;;5072482;28;20472;-77
2021/03/26 04:35:20;;;;;;;13.77;8.00;;;8.40;99.90;;;;;;5072501;28;20558;-77
2021/03/26 04:37:57;;;;;;;13.10;8.05;;;8.70;99.90;;;;;;5071722;28;20598;-77
2021/03/26 04:40:28;;;;;;;12.33;7.83;;;8.50;99.90;;;;;;5072906;28;20288;-77
2021/03/26 04:43:05;;;;;;;10.70;8.13;;;8.60;99.90;;;;;;5072586;28;20648;-77
2021/03/26 04:45:41;;;;;;;14.30;8.83;;;8.60;99.90;;;;;;5072560;28;20828;-77
2021/03/26 04:48:18;;;;;;;15.77;7.93;;;8.80;99.90;;;;;;5071816;28;20448;-77
2021/03/26 04:50:51;;;;;;;13.73;9.03;;;8.70;99.90;;;;;;5072035;28;20459;-77
2021/03/26 04:53:22;;;;;;;10.30;8.03;;;8.50;99.90;;;;;;5071915;28;20547;-76
2021/03/26 04:55:53;;;;;;;12.53;8.00;;;8.70;99.90;;;;;;5070578;28;20454;-77
2021/03/26 04:58:24;;;;;;;13.93;8.75;;;8.50;99.90;;;;;;5071685;28;20531;-76
2021/03/26 05:00:54;;;;;;;15.27;7.85;;;8.60;99.90;;;;;;5071969;28;20205;-76
2021/03/26 05:03:24;;;;;;;11.83;7.93;;;8.70;99.90;;;;;;5071838;28;20269;-77
2021/03/26 05:05:53;;;;;;;14.77;8.38;;;8.50;99.90;;;;;;5072573;28;20447;-79
2021/03/26 05:08:21;;;;;;;11.90;8.23;;;8.60;99.90;;;;;;5072299;28;20288;-77
2021/03/26 05:10:49;;;;;;;13.17;8.20;;;8.60;99.90;;;;;;5071614;28;20564;-77
2021/03/26 05:13:23;;;;;;;16.23;8.50;;;8.70;99.90;;;;;;5072157;28;20566;-77
2021/03/26 05:15:57;;;;;;;12.60;7.87;;;8.70;99.90;;;;;;5071963;28;20444;-77
2021/03/26 05:18:30;;;;;;;12.83;8.80;;;9.00;99.90;;;;;;5071655;28;20542;-78
2021/03/26 05:21:03;;;;;;;13.77;8.97;;;8.90;99.90;;;;;;5051890;28;20475;-77
2021/03/26 05:23:36;;;;;;;15.40;8.50;;;8.90;99.90;;;;;;5051454;28;20547;-77
2021/03/26 05:26:02;;;;;;;19.13;9.73;;;8.70;99.90;;;;;;5061597;28;20452;-77
2021/03/26 05:28:33;;;;;;;14.80;9.23;;;8.70;99.90;;;;;;5072494;28;20642;-77
2021/03/26 05:31:07;;;;;;;12.93;8.20;;;8.70;99.90;;;;;;5071946;28;20210;-77
2021/03/26 05:33:37;;;;;;;15.25;10.13;;;8.60;99.90;;;;;;5071165;28;20475;-77
2021/03/26 05:36:09;;;;;;;13.93;10.40;;;8.70;99.90;;;;;;5071757;28;20704;-78
2021/03/26 05:38:45;;;;;;;13.93;7.93;;;8.90;99.90;;;;;;5072756;28;20571;-77
2021/03/26 05:41:48;;;;;;;15.13;7.57;;;8.80;99.90;;;;;;5072914;28;20456;-78
2021/03/26 05:44:54;;;;;;;14.73;9.27;;;9.00;99.90;;;;;;5062464;28;20934;-77
2021/03/26 05:47:47;;;;;;;13.50;8.60;;;8.80;99.90;;;;;;5065563;28;20438;-78
2021/03/26 05:50:31;;;;;;;16.83;9.30;;;8.90;99.90;;;;;;5071417;28;20539;-77
2021/03/26 05:53:18;;;;;;;16.97;8.60;;;9.10;99.90;;;;;;5070599;28;20790;-77
2021/03/26 05:55:51;;;;;;;15.50;8.80;;;9.00;99.90;;;;;;5071953;28;20811;-78
2021/03/26 05:58:25;;;;;;;13.97;9.10;;;9.00;99.90;;;;;;5070651;28;20455;-77
2021/03/26 06:01:08;;;;;;;13.60;7.90;;;8.70;99.90;;;;;;5069121;28;20437;-77
2021/03/26 06:04:24;;;;;;;19.07;9.20;;;8.90;99.90;;;;;;5070578;28;20587;-77
2021/03/26 06:07:33;;;;;;;15.40;9.13;;;8.70;99.90;;;;;;5071120;28;20950;-77
2021/03/26 06:10:33;;;;;;;12.98;8.80;;;8.80;99.90;;;;;;5063009;28;20998;-77
2021/03/26 06:13:29;;;;;;;14.07;9.03;;;8.80;99.90;;;;;;5070429;28;20606;-76
2021/03/26 06:16:32;;;;;;;13.57;9.70;;;9.10;99.90;;;;;;5070965;28;20459;-77
2021/03/26 06:19:25;;;;;;;14.80;10.23;;;9.40;99.90;;;;;;5071897;28;20533;-77
2021/03/26 06:22:07;;;;;;;12.87;9.17;;;9.20;99.90;;;;;;5071507;28;20479;-75
2021/03/26 06:25:01;;;;;;;14.53;8.80;;;9.10;99.90;;;;;;5071529;28;20452;-77
2021/03/26 06:27:32;;;;;;;14.00;10.33;;;9.50;99.90;;;;;;5055033;28;20540;-77
2021/03/26 06:30:18;;;;;;;17.00;9.93;;;9.40;99.90;;;;;;5071005;28;20451;-77
2021/03/26 06:33:36;;;;;;;16.60;10.40;;;9.50;99.90;;;;;;5077628;28;20508;-78
2021/03/26 06:36:28;;;;;;;16.00;11.33;;;9.70;99.90;;;;;;5076162;28;20482;-77
2021/03/26 06:39:28;;;;;;;20.27;12.80;;;9.30;99.90;;;;;;5074983;28;20552;-77
2021/03/26 06:42:16;;;;;;;16.33;11.70;;;9.80;99.90;;;;;;5070447;28;20556;-77
2021/03/26 06:44:53;;;;;;;18.60;12.60;;;10.00;99.90;;;;;;5067194;28;20997;-77
2021/03/26 06:47:36;;;;;;;19.20;11.80;;;10.10;99.90;;;;;;5074058;28;20471;-78
2021/03/26 06:50:14;;;;;;;18.30;13.20;;;10.20;99.90;;;;;;5076567;28;20543;-78
2021/03/26 06:52:55;;;;;;;21.30;12.77;;;10.20;99.90;;;;;;5076217;28;20490;-78
2021/03/26 06:55:46;;;;;;;23.27;12.27;;;10.30;99.90;;;;;;5076744;28;20460;-78
2021/03/26 06:58:36;;;;;;;20.83;11.80;;;10.40;99.90;;;;;;5075430;28;20448;-78
2021/03/26 07:01:42;;;;;;;17.93;11.40;;;10.50;99.90;;;;;;5078371;28;20505;-78
2021/03/26 07:04:52;;;;;;;25.33;15.00;;;10.50;99.90;;;;;;5075884;28;20483;-78
2021/03/26 07:07:54;;;;;;;19.47;12.87;;;10.50;99.90;;;;;;5074087;28;20442;-77
2021/03/26 07:10:34;;;;;;;16.90;12.00;;;10.50;99.90;;;;;;5065408;28;20482;-78
2021/03/26 07:13:39;;;;;;;23.43;13.03;;;10.50;99.90;;;;;;5066361;28;20487;-77
2021/03/26 07:16:28;;;;;;;15.40;11.90;;;10.70;99.90;;;;;;5055604;28;20455;-77
2021/03/26 07:19:11;;;;;;;23.20;13.00;;;10.80;99.90;;;;;;5074453;28;20447;-77
2021/03/26 07:22:02;;;;;;;20.83;11.83;;;10.80;99.90;;;;;;5077539;28;20937;-77
2021/03/26 07:25:04;;;;;;;25.67;12.90;;;11.00;99.90;;;;;;5081019;28;20465;-78
2021/03/26 07:27:44;;;;;;;16.03;11.57;;;11.10;99.90;;;;;;5060321;28;20444;-77
2021/03/26 07:30:31;;;;;;;19.87;12.53;;;11.20;99.90;;;;;;5074791;28;20498;-78
2021/03/26 07:33:22;;;;;;;24.53;13.00;;;11.40;99.90;;;;;;5075225;28;20834;-78
2021/03/26 07:36:05;;;;;;;20.97;11.53;;;11.50;99.90;;;;;;5070738;28;20442;-78
2021/03/26 07:39:13;;;;;;;20.07;11.40;;;11.60;99.90;;;;;;5073833;28;20512;-78
2021/03/26 07:42:13;;;;;;;26.90;13.50;;;11.80;99.90;;;;;;5034558;28;20472;-78
2021/03/26 07:45:06;;;;;;;15.80;12.00;;;11.80;99.90;;;;;;5069622;28;20448;-78
2021/03/26 07:47:58;;;;;;;20.80;11.90;;;11.70;99.90;;;;;;5076132;28;20480;-78
2021/03/26 07:50:38;;;;;;;21.63;12.73;;;11.60;99.90;;;;;;5074847;28;20535;-78
2021/03/26 07:53:26;;;;;;;16.27;11.90;;;11.60;99.90;;;;;;5074178;28;20531;-78
2021/03/26 07:55:59;;;;;;;15.33;11.53;;;11.60;99.90;;;;;;5072919;28;20447;-78
2021/03/26 07:59:14;;;;;;;21.60;13.20;;;11.90;99.90;;;;;;5076507;28;20981;-79
2021/03/26 08:02:04;;;;;;;20.63;12.60;;;12.00;99.90;;;;;;5074658;28;20507;-77
2021/03/26 08:04:40;;;;;;;16.20;11.10;;;12.10;99.90;;;;;;5074639;28;20498;-78
2021/03/26 08:07:37;;;;;;;15.50;10.70;;;12.10;99.90;;;;;;5078154;28;20465;-79
2021/03/26 08:10:23;;;;;;;16.20;11.40;;;12.30;99.90;;;;;;5073721;28;20423;-78
2021/03/26 08:13:03;;;;;;;18.93;12.07;;;12.30;99.90;;;;;;5072337;28;20451;-77
2021/03/26 08:15:54;;;;;;;17.87;11.23;;;12.30;99.90;;;;;;5072225;28;20530;-77
2021/03/26 08:18:47;;;;;;;17.60;11.50;;;12.50;99.90;;;;;;5072656;28;21028;-76
2021/03/26 08:21:18;;;;;;;17.40;11.17;;;12.70;99.90;;;;;;5072523;28;20531;-77
2021/03/26 08:23:54;;;;;;;21.03;11.57;;;12.60;99.90;;;;;;5073496;28;20488;-74
2021/03/26 08:26:34;;;;;;;16.10;10.90;;;12.70;99.90;;;;;;5074566;28;20455;-77
2021/03/26 08:29:17;;;;;;;18.43;12.77;;;12.70;99.90;;;;;;5069644;28;20551;-76
2021/03/26 08:32:02;;;;;;;16.07;11.80;;;12.60;99.90;;;;;;5063107;28;20448;-76
2021/03/26 08:35:14;;;;;;;18.83;12.60;;;12.70;99.90;;;;;;5074509;28;20444;-77
2021/03/26 08:37:53;;;;;;;18.17;11.80;;;12.90;99.90;;;;;;5072672;28;20464;-77
2021/03/26 08:40:23;;;;;;;25.53;14.80;;;13.00;99.90;;;;;;5072455;28;20832;-76
2021/03/26 08:42:51;;;;;;;26.77;13.90;;;12.90;99.90;;;;;;5071417;28;20500;-76
2021/03/26 08:45:28;;;;;;;25.03;14.47;;;12.90;99.90;;;;;;5071856;28;20476;-77
2021/03/26 08:48:06;;;;;;;21.33;14.43;;;13.00;99.90;;;;;;5071409;28;20449;-77
2021/03/26 08:50:45;;;;;;;16.60;14.37;;;12.90;99.90;;;;;;5071367;28;20460;-77
2021/03/26 08:53:22;;;;;;;27.40;13.50;;;13.00;99.90;;;;;;5071856;28;20464;-78
2021/03/26 08:56:18;;;;;;;20.77;13.87;;;13.10;99.90;;;;;;5073039;28;20426;-78
2021/03/26 08:59:21;;;;;;;20.37;14.37;;;13.10;99.90;;;;;;5054029;28;20457;-76
2021/03/26 09:02:21;;;;;;;16.87;12.40;;;13.20;99.90;;;;;;5072259;28;20430;-78
2021/03/26 09:05:02;;;;;;;22.70;12.83;;;13.30;99.90;;;;;;5072435;28;20444;-77
2021/03/26 09:07:43;;;;;;;21.83;13.70;;;13.40;99.90;;;;;;5074411;28;20444;-78
2021/03/26 09:10:56;;;;;;;20.97;14.50;;;13.40;99.90;;;;;;5070856;28;20454;-74
2021/03/26 09:13:37;;;;;;;18.17;13.50;;;13.60;99.60;;;;;;5053286;28;20794;-77
2021/03/26 09:16:07;;;;;;;20.23;12.43;;;13.70;99.40;;;;;;5072200;28;20500;-78
2021/03/26 09:19:02;;;;;;;19.40;13.10;;;13.80;98.70;;;;;;5076028;28;20435;-78
2021/03/26 09:21:49;;;;;;;17.53;12.70;;;13.90;98.30;;;;;;5060719;28;20581;-76
2021/03/26 09:24:47;;;;;;;21.07;12.50;;;14.00;98.60;;;;;;5070818;28;20557;-77
2021/03/26 09:27:33;;;;;;;14.90;11.27;;;14.10;96.60;;;;;;5070867;28;20419;-76
2021/03/26 09:30:11;;;;;;;16.80;10.93;;;14.10;96.30;;;;;;5070311;28;20431;-77
2021/03/26 09:32:46;;;;;;;16.83;12.20;;;14.20;96.20;;;;;;5071429;28;20532;-76
2021/03/26 09:35:17;;;;;;;18.53;11.70;;;14.30;97.10;;;;;;5072858;28;20429;-77
2021/03/26 09:37:46;;;;;;;14.57;11.00;;;14.50;96.20;;;;;;5071399;28;20599;-77
2021/03/26 09:40:24;;;;;;;19.33;13.50;;;14.50;96.20;;;;;;5071613;28;20560;-77
2021/03/26 09:42:54;;;;;;;17.13;12.20;;;14.60;96.40;;;;;;5060122;28;20839;-80
2021/03/26 09:45:40;;;;;;;23.17;11.43;;;14.70;96.20;;;;;;5070861;28;20491;-75
2021/03/26 09:48:40;;;;;;;18.50;10.43;;;14.80;96.00;;;;;;5072843;28;20476;-79
2021/03/26 09:51:17;;;;;;;14.93;10.20;;;14.90;95.70;;;;;;5070550;28;20448;-75
2021/03/26 09:53:44;;;;;;;14.20;10.70;;;15.00;95.40;;;;;;5070281;28;20551;-76
2021/03/26 09:56:34;;;;;;;14.30;11.37;;;14.90;95.50;;;;;;5070501;28;20462;-76
2021/03/26 09:59:05;;;;;;;14.93;10.83;;;14.90;95.60;;;;;;5069854;28;20450;-75
2021/03/26 10:01:39;;;;;;;16.20;11.33;;;15.10;95.40;;;;;;5069847;28;20426;-75
2021/03/26 10:04:08;;;;;;;14.27;10.20;;;15.20;95.30;;;;;;5069475;28;20463;-75
2021/03/26 10:06:43;;;;;;;13.27;10.30;;;15.40;95.10;;;;;;5069354;28;20869;-75
2021/03/26 10:09:23;;;;;;;14.00;10.60;;;15.60;94.80;;;;;;5063536;28;20475;-75
2021/03/26 10:12:04;;;;;;;14.87;9.90;;;15.50;94.20;;;;;;5068768;28;20435;-75
2021/03/26 10:14:33;;;;;;;20.17;10.93;;;15.50;94.30;;;;;;5069398;28;20517;-75
2021/03/26 10:17:26;;;;;;;13.97;10.83;;;15.60;94.10;;;;;;5086698;22;20488;-79
2021/03/26 10:19:56;;;;;;;16.53;10.63;;;15.70;93.70;;;;;;5066000;28;20460;-79
2021/03/26 10:22:29;;;;;;;16.40;11.00;;;15.80;93.50;;;;;;5057110;28;20428;-80
2021/03/26 10:25:02;;;;;;;16.87;10.13;;;15.80;93.30;;;;;;5076039;28;20483;-80
2021/03/26 10:27:32;;;;;;;14.07;9.43;;;16.00;93.20;;;;;;5091311;28;20496;-79
2021/03/26 10:30:04;;;;;;;13.47;9.60;;;16.10;93.10;;;;;;5097327;28;20437;-86
2021/03/26 10:32:32;;;;;;;13.33;9.97;;;16.10;92.50;;;;;;5097100;28;20451;-85
2021/03/26 10:35:01;;;;;;;16.20;10.30;;;16.20;92.50;;;;;;5097029;28;20444;-87
2021/03/26 10:37:41;;;;;;;17.87;9.17;;;16.10;92.50;;;;;;5095084;28;20465;-86
2021/03/26 10:40:14;;;;;;;13.80;9.10;;;16.30;92.20;;;;;;5076734;28;20487;-86
2021/03/26 10:42:51;;;;;;;12.63;8.80;;;16.30;91.60;;;;;;5075826;28;20530;-85
2021/03/26 10:45:36;;;;;;;12.47;8.77;;;16.40;91.20;;;;;;5079211;28;20512;-82
2021/03/26 10:48:08;;;;;;;11.03;7.67;;;16.50;90.80;;;;;;5093560;28;20486;-82
2021/03/26 10:51:02;;;;;;;9.80;7.50;;;16.60;89.80;;;;;;5076739;28;20978;-82
2021/03/26 10:53:30;;;;;;;13.73;7.07;;;16.70;88.50;;;;;;5068492;28;20506;-77
2021/03/26 10:56:03;;;;;;;15.57;8.20;;;17.00;87.70;;;;;;5081357;28;20447;-80
2021/03/26 10:58:36;;;;;;;11.37;7.60;;;17.10;86.60;;;;;;5091697;28;20475;-79
2021/03/26 11:01:10;;;;;;;13.00;7.30;;;17.20;85.60;;;;;;5078674;28;20442;-79
2021/03/26 11:03:43;;;;;;;10.10;7.63;;;17.10;84.30;;;;;;5078909;28;20516;-81
2021/03/26 11:06:18;;;;;;;9.47;7.20;;;17.20;83.80;;;;;;5076895;28;20500;-81
2021/03/26 11:09:03;;;;;;;9.60;6.63;;;17.20;84.10;;;;;;5077190;28;20434;-80
2021/03/26 11:11:38;;;;;;;10.80;6.83;;;17.30;83.20;;;;;;5105698;28;20426;-81
2021/03/26 11:14:37;;;;;;;8.90;4.80;;;17.20;83.50;;;;;;5100453;28;20474;-82
2021/03/26 11:17:15;;;;;;;7.77;5.10;;;17.20;79.90;;;;;;5093654;28;20476;-81
2021/03/26 11:19:47;;;;;;;10.60;6.37;;;17.30;79.80;;;;;;5086259;28;20471;-83
2021/03/26 11:22:18;;;;;;;8.37;5.77;;;17.50;78.40;;;;;;5082366;28;20819;-81
2021/03/26 11:24:58;;;;;;;8.23;4.77;;;17.40;78.50;;;;;;5095966;28;20451;-82
2021/03/26 11:27:31;;;;;;;9.13;5.37;;;17.40;79.10;;;;;;5095551;28;20464;-80
2021/03/26 11:30:25;;;;;;;8.30;5.80;;;17.40;77.20;;;;;;5108606;28;20439;-81
2021/03/26 11:32:58;;;;;;;8.00;5.30;;;17.40;76.00;;;;;;5093165;28;20485;-82
2021/03/26 11:35:27;;;;;;;9.80;5.57;;;17.30;76.70;;;;;;5111701;28;20422;-80
2021/03/26 11:37:57;;;;;;;8.83;5.87;;;17.50;77.00;;;;;;5108062;28;20487;-82
2021/03/26 11:40:30;;;;;;;6.73;4.83;;;17.60;76.50;;;;;;5086191;28;20415;-83
2021/03/26 11:43:07;;;;;;;9.53;5.73;;;17.60;76.50;;;;;;5098915;28;20974;-81
2021/03/26 11:45:40;;;;;;;10.70;6.10;;;17.50;76.60;;;;;;5081578;28;20503;-82
2021/03/26 11:48:34;;;;;;;8.90;5.90;;;17.50;74.40;;;;;;5098275;28;20464;-81
2021/03/26 11:51:12;;;;;;;9.90;6.50;;;17.50;75.40;;;;;;5079858;28;20447;-82
2021/03/26 11:53:46;;;;;;;9.60;6.47;;;17.40;76.10;;;;;;5082474;28;20452;-79
2021/03/26 11:56:34;;;;;;;8.67;5.90;;;17.40;75.80;;;;;;5093387;28;20468;-81
2021/03/26 11:59:21;;;;;;;10.00;7.10;;;17.30;75.40;;;;;;5086162;28;20421;-82
2021/03/26 12:02:33;;;;;;;9.73;7.03;;;17.40;75.90;;;;;;5112281;28;20434;-81
2021/03/26 12:05:09;;;;;;;8.40;5.90;;;17.30;76.20;;;;;;5071218;28;20460;-80
2021/03/26 12:07:39;;;;;;;15.73;7.67;;;17.40;75.60;;;;;;5092709;28;20462;-80
2021/03/26 12:10:14;;;;;;;10.63;6.83;;;17.30;76.30;;;;;;5080301;28;20475;-81
2021/03/26 12:12:44;;;;;;;13.60;8.40;;;17.20;77.10;;;;;;5079923;28;20479;-81
2021/03/26 12:15:14;;;;;;;11.73;7.40;;;17.20;77.20;;;;;;5085130;28;20445;-80
2021/03/26 12:17:44;;;;;;;9.60;7.37;;;17.30;76.60;;;;;;5091142;28;20575;-82
2021/03/26 12:20:27;;;;;;;13.10;7.80;;;17.30;76.50;;;;;;5104403;28;20539;-79
2021/03/26 12:23:09;;;;;;;8.57;6.43;;;17.40;75.90;;;;;;5087751;28;20458;-80
2021/03/26 12:25:41;;;;;;;13.90;7.77;;;17.50;76.60;;;;;;5087469;28;20486;-82
2021/03/26 12:28:17;;;;;;;10.97;7.73;;;17.50;76.70;;;;;;5086016;28;20456;-83
2021/03/26 12:30:49;;;;;;;12.27;6.20;;;17.70;76.50;;;;;;5086957;28;20434;-81
2021/03/26 12:33:24;;;;;;;12.30;7.93;;;17.70;76.50;;;;;;5098220;28;20455;-80
2021/03/26 12:35:55;;;;;;;14.93;7.57;;;17.50;76.40;;;;;;5100516;28;20426;-82
2021/03/26 12:38:29;;;;;;;11.60;6.70;;;17.60;76.80;;;;;;5088507;28;20427;-81
2021/03/26 12:41:23;;;;;;;10.53;6.90;;;17.70;76.50;;;;;;5080592;28;20464;-82
2021/03/26 12:43:59;;;;;;;10.27;6.60;;;18.00;75.30;;;;;;5081458;28;20492;-81
2021/03/26 12:46:54;;;;;;;9.10;5.90;;;18.00;74.70;;;;;;5088621;28;20453;-80
2021/03/26 12:49:26;;;;;;;10.93;6.80;;;17.90;74.80;;;;;;5080991;28;20471;-81
2021/03/26 12:51:58;;;;;;;11.13;6.47;;;17.90;74.90;;;;;;5084147;28;20444;-82
2021/03/26 12:54:32;;;;;;;10.77;6.67;;;17.90;75.20;;;;;;5100791;28;20547;-82
2021/03/26 12:57:06;;;;;;;9.27;6.93;;;18.00;75.30;;;;;;5100982;28;20469;-81
2021/03/26 12:59:36;;;;;;;9.13;6.47;;;18.10;75.20;;;;;;5098870;28;20515;-79
2021/03/26 13:02:09;;;;;;;9.53;6.97;;;18.10;74.30;;;;;;5098177;28;20447;-82
2021/03/26 13:04:53;;;;;;;8.60;4.67;;;18.10;74.20;;;;;;5099170;28;20457;-81
2021/03/26 13:07:28;;;;;;;12.50;6.50;;;18.10;74.20;;;;;;5089771;28;20537;-82
2021/03/26 13:10:02;;;;;;;11.00;5.37;;;18.00;74.50;;;;;;5079609;28;20456;-81
2021/03/26 13:12:33;;;;;;;9.77;6.30;;;18.00;74.90;;;;;;5080490;28;20578;-81
2021/03/26 13:15:13;;;;;;;7.47;4.67;;;18.10;73.50;;;;;;5080054;28;20529;-82
2021/03/26 13:17:39;;;;;;;10.70;5.60;;;18.10;70.10;;;;;;5080816;28;20544;-80
2021/03/26 13:20:10;;;;;;;11.80;5.60;;;18.10;69.60;;;;;;5084727;28;20422;-81
2021/03/26 13:22:45;;;;;;;7.83;4.87;;;18.20;71.30;;;;;;5099104;28;20515;-80
2021/03/26 13:25:20;;;;;;;9.97;5.87;;;18.40;70.50;;;;;;5098188;28;20448;-81
2021/03/26 13:28:05;;;;;;;8.47;5.83;;;18.40;68.70;;;;;;5091167;28;21037;-80